Time;durP1;ratioP1;P1;durP2;ratioP2;P2;SDS_P1;SDS_P2;PMS_P1;PMS_P2;Temp;Humidity;BMP_temperature;BMP_pressure;BME280_temperature;BME280_humidity;BME280_pressure;Samples;Min_cycle;Max_cycle;Signal;HPM_P1;HPM_P2
2022/09/22 00:01:27;;;;;;;6.68;3.60;;;;;;;7.74;100.00;101887.28;5062593;28;20117;-81
2022/09/22 00:04:00;;;;;;;5.05;3.42;;;;;;;7.72;100.00;101887.25;5045086;28;20051;-81
2022/09/22 00:06:40;;;;;;;4.82;2.97;;;;;;;7.69;100.00;101884.59;5050281;28;20040;-81
2022/09/22 00:09:12;;;;;;;6.13;3.35;;;;;;;7.67;100.00;101895.81;5061679;28;20048;-81
2022/09/22 00:11:43;;;;;;;5.00;3.40;;;;;;;7.64;100.00;101887.91;5059950;28;20036;-82
2022/09/22 00:14:14;;;;;;;5.57;2.70;;;;;;;7.62;100.00;101888.75;5068983;28;20036;-81
2022/09/22 00:17:07;;;;;;;9.55;2.40;;;;;;;7.57;100.00;101885.19;5088865;28;20044;-81
2022/09/22 00:19:37;;;;;;;5.30;2.60;;;;;;;7.52;100.00;101889.41;5050678;28;20449;-80
2022/09/22 00:22:05;;;;;;;4.32;2.53;;;;;;;7.52;100.00;101883.28;5057182;28;20131;-81
2022/09/22 00:24:33;;;;;;;10.23;3.40;;;;;;;7.48;100.00;101884.06;5022819;28;20049;-81
2022/09/22 00:27:00;;;;;;;3.97;2.90;;;;;;;7.46;100.00;101876.22;5025212;28;20102;-81
2022/09/22 00:29:30;;;;;;;4.47;3.00;;;;;;;7.44;100.00;101881.41;5027539;28;20163;-81
2022/09/22 00:31:57;;;;;;;8.15;2.83;;;;;;;7.41;100.00;101889.13;5041679;28;20080;-81
2022/09/22 00:34:26;;;;;;;4.32;2.58;;;;;;;7.40;100.00;101884.75;5037989;28;20737;-81
2022/09/22 00:36:53;;;;;;;5.05;2.58;;;;;;;7.39;100.00;101880.41;5030491;28;20059;-81
2022/09/22 00:39:20;;;;;;;5.07;2.60;;;;;;;7.36;100.00;101879.44;5021482;28;20063;-81
2022/09/22 00:41:51;;;;;;;6.32;2.83;;;;;;;7.35;100.00;101877.69;5041208;28;20041;-81
2022/09/22 00:44:26;;;;;;;4.80;2.13;;;;;;;7.34;100.00;101881.13;5021109;28;20056;-81
2022/09/22 00:46:58;;;;;;;2.75;2.33;;;;;;;7.31;100.00;101876.72;5037594;28;20098;-81
2022/09/22 00:49:58;;;;;;;3.95;2.30;;;;;;;7.29;100.00;101881.03;5042434;28;20071;-82
2022/09/22 00:52:36;;;;;;;4.15;2.38;;;;;;;7.24;100.00;101877.44;5038318;28;20082;-81
2022/09/22 00:55:11;;;;;;;4.32;2.20;;;;;;;7.22;100.00;101877.41;5042868;28;20128;-80
2022/09/22 00:57:40;;;;;;;10.07;2.83;;;;;;;7.21;100.00;101873.03;5027021;28;20054;-80
2022/09/22 01:00:09;;;;;;;5.75;2.72;;;;;;;7.19;100.00;101874.69;5043670;28;20049;-82
2022/09/22 01:02:37;;;;;;;4.88;2.67;;;;;;;7.17;100.00;101865.09;5036845;28;20064;-80
2022/09/22 01:05:05;;;;;;;5.05;2.47;;;;;;;7.15;100.00;101864.19;5037077;28;20045;-80
2022/09/22 01:07:35;;;;;;;3.75;2.72;;;;;;;7.11;100.00;101861.50;5041453;28;20032;-81
2022/09/22 01:10:02;;;;;;;4.38;3.60;;;;;;;7.10;100.00;101862.34;5028620;28;20055;-81
2022/09/22 01:12:31;;;;;;;4.72;2.97;;;;;;;7.08;100.00;101864.03;5010595;28;20068;-81
2022/09/22 01:15:48;;;;;;;4.65;2.90;;;;;;;7.06;100.00;101863.09;5068322;28;20073;-81
2022/09/22 01:18:28;;;;;;;6.35;2.35;;;;;;;7.03;100.00;101862.16;5021825;28;20064;-81
2022/09/22 01:21:23;;;;;;;7.50;2.22;;;;;;;7.01;100.00;101859.50;5031512;28;20132;-81
2022/09/22 01:24:08;;;;;;;3.28;2.70;;;;;;;6.97;100.00;101868.06;5054622;28;20036;-81
2022/09/22 01:27:07;;;;;;;5.60;2.45;;;;;;;6.93;100.00;101854.09;5074145;28;20068;-81
2022/09/22 01:30:05;;;;;;;5.93;2.60;;;;;;;6.91;100.00;101858.41;5063466;28;20493;-80
2022/09/22 01:32:49;;;;;;;6.93;3.10;;;;;;;6.90;100.00;101854.03;5081091;28;20130;-81
2022/09/22 01:35:41;;;;;;;3.67;2.55;;;;;;;6.91;100.00;101861.00;5038808;28;20374;-80
2022/09/22 01:38:27;;;;;;;5.05;3.10;;;;;;;6.86;100.00;101857.41;5059395;28;20067;-81
2022/09/22 01:41:20;;;;;;;5.00;3.10;;;;;;;6.84;100.00;101858.19;5069049;28;20080;-81
2022/09/22 01:43:56;;;;;;;4.43;2.63;;;;;;;6.83;100.00;101859.03;5058728;28;20052;-80
2022/09/22 01:46:39;;;;;;;4.20;2.60;;;;;;;6.81;100.00;101858.13;5073220;28;20118;-80
2022/09/22 01:49:09;;;;;;;3.40;2.50;;;;;;;6.75;100.00;101854.53;5047712;28;20040;-81
2022/09/22 01:51:46;;;;;;;9.45;3.03;;;;;;;6.73;100.00;101853.59;5075613;28;20143;-80
2022/09/22 01:54:20;;;;;;;5.53;3.35;;;;;;;6.69;100.00;101854.34;5053039;28;20044;-80
2022/09/22 01:56:51;;;;;;;;;;;;;;;6.66;100.00;101851.66;5056438;28;20051;-81
2022/09/22 01:59:22;;;;;;;7.70;2.58;;;;;;;6.66;100.00;101854.25;5067406;28;19920;-81
2022/09/22 02:02:02;;;;;;;3.78;2.67;;;;;;;6.65;100.00;101843.81;5070267;28;20079;-81
2022/09/22 02:04:43;;;;;;;4.93;2.88;;;;;;;6.62;100.00;101845.50;5046091;28;20060;-82
2022/09/22 02:07:19;;;;;;;2.53;2.33;;;;;;;6.60;100.00;101846.31;5046188;28;20510;-81
2022/09/22 02:09:48;;;;;;;2.65;2.38;;;;;;;6.58;100.00;101841.06;5059210;28;20083;-81
2022/09/22 02:12:18;;;;;;;5.78;2.60;;;;;;;6.56;100.00;101847.06;5043359;28;20093;-81
2022/09/22 02:14:47;;;;;;;3.92;2.55;;;;;;;6.54;100.00;101836.59;5046311;28;20045;-80
2022/09/22 02:17:15;;;;;;;3.30;2.55;;;;;;;6.52;100.00;101835.69;5050671;28;20040;-80
2022/09/22 02:19:45;;;;;;;5.22;3.00;;;;;;;6.46;100.00;101835.53;5064146;28;20143;-81
2022/09/22 02:22:12;;;;;;;3.70;2.50;;;;;;;6.42;100.00;101837.16;5060609;28;20529;-80
2022/09/22 02:24:45;;;;;;;4.85;2.15;;;;;;;6.40;100.00;101835.34;5046836;28;20119;-81
2022/09/22 02:27:24;;;;;;;4.07;2.92;;;;;;;6.38;100.00;101837.91;5035832;28;20452;-80
2022/09/22 02:30:01;;;;;;;10.95;4.10;;;;;;;6.38;100.00;101839.66;5058701;28;20048;-80
2022/09/22 02:32:29;;;;;;;5.15;3.25;;;;;;;6.36;100.00;101841.31;5055427;28;20036;-81
2022/09/22 02:34:57;;;;;;;6.63;3.25;;;;;;;6.35;100.00;101834.34;5047964;28;20131;-81
2022/09/22 02:37:39;;;;;;;5.72;4.00;;;;;;;6.35;100.00;101837.84;5057555;28;20056;-81
2022/09/22 02:40:43;;;;;;;4.30;2.90;;;;;;;6.35;100.00;101830.03;5064358;28;20363;-80
2022/09/22 02:43:19;;;;;;;4.78;2.95;;;;;;;6.35;100.00;101832.63;5043088;28;20048;-81
2022/09/22 02:45:59;;;;;;;6.93;3.85;;;;;;;6.33;100.00;101830.84;5061858;28;20044;-81
2022/09/22 02:48:34;;;;;;;4.45;3.22;;;;;;;6.33;100.00;101829.09;5050310;28;20098;-81
2022/09/22 02:51:01;;;;;;;7.00;4.78;;;;;;;6.33;100.00;101826.50;5052642;28;20037;-81
2022/09/22 02:53:28;;;;;;;6.00;4.00;;;;;;;6.33;100.00;101826.50;5037792;28;20193;-80
2022/09/22 02:55:54;;;;;;;7.18;4.45;;;;;;;6.31;100.00;101824.69;5045044;28;20155;-82
2022/09/22 02:58:21;;;;;;;5.53;3.40;;;;;;;6.28;100.00;101829.00;5058492;28;20036;-82
2022/09/22 03:00:47;;;;;;;2.95;2.65;;;;;;;6.23;100.00;101829.69;5065577;28;20066;-82
2022/09/22 03:03:14;;;;;;;2.97;2.38;;;;;;;6.20;100.00;101827.00;5062229;28;20040;-81
2022/09/22 03:05:43;;;;;;;3.67;2.20;;;;;;;6.14;100.00;101825.13;5050530;28;20071;-81
2022/09/22 03:08:10;;;;;;;2.78;2.00;;;;;;;6.09;100.00;101825.00;5061664;28;20666;-81
2022/09/22 03:10:37;;;;;;;5.30;1.85;;;;;;;6.06;100.00;101821.41;5051557;28;20116;-81
2022/09/22 03:13:03;;;;;;;4.60;1.90;;;;;;;6.03;100.00;101819.59;5045062;28;20466;-81
2022/09/22 03:15:30;;;;;;;4.57;1.73;;;;;;;6.00;100.00;101816.94;5067280;28;20040;-83
2022/09/22 03:17:57;;;;;;;6.40;2.70;;;;;;;5.99;100.00;101807.38;5054985;28;20048;-82
2022/09/22 03:20:23;;;;;;;4.95;1.90;;;;;;;6.00;100.00;101805.63;5048891;28;20167;-82
2022/09/22 03:22:50;;;;;;;8.23;2.67;;;;;;;5.99;100.00;101802.16;5044610;28;20052;-82
2022/09/22 03:25:16;;;;;;;3.97;1.70;;;;;;;5.99;100.00;101807.38;5045603;28;20054;-80
2022/09/22 03:27:43;;;;;;;4.47;1.83;;;;;;;5.99;100.00;101807.38;5052258;28;20852;-82
2022/09/22 03:30:11;;;;;;;1.85;1.52;;;;;;;6.00;100.00;101805.63;5046953;28;20094;-79
2022/09/22 03:32:42;;;;;;;2.85;2.28;;;;;;;5.97;100.00;101804.69;5076372;28;20687;-81
2022/09/22 03:35:09;;;;;;;1.25;1.20;;;;;;;5.96;100.00;101804.66;5045106;28;20086;-82
2022/09/22 03:37:36;;;;;;;2.72;1.83;;;;;;;5.94;100.00;101815.00;5044676;28;20059;-80
2022/09/22 03:40:04;;;;;;;1.77;1.67;;;;;;;5.92;100.00;101805.41;5034151;28;20057;-81
2022/09/22 03:42:31;;;;;;;3.95;2.00;;;;;;;5.93;100.00;101799.34;5029385;28;20049;-80
2022/09/22 03:44:58;;;;;;;5.28;2.28;;;;;;;5.90;100.00;101796.69;5043048;28;20045;-82
2022/09/22 03:47:25;;;;;;;2.85;2.10;;;;;;;5.87;100.00;101800.06;5062866;28;20490;-81
2022/09/22 03:49:51;;;;;;;4.85;2.10;;;;;;;5.84;100.00;101794.78;5047534;28;20075;-82
2022/09/22 03:52:18;;;;;;;2.25;1.48;;;;;;;5.83;100.00;101793.03;5062182;28;20037;-82
2022/09/22 03:54:44;;;;;;;2.42;1.60;;;;;;;5.85;100.00;101803.47;5038423;28;20151;-83
2022/09/22 03:57:11;;;;;;;2.22;1.67;;;;;;;5.82;100.00;101800.78;5046650;28;20075;-81
2022/09/22 03:59:37;;;;;;;2.50;1.80;;;;;;;5.80;100.00;101792.91;5080679;28;20063;-82
2022/09/22 04:02:04;;;;;;;5.43;2.90;;;;;;;5.79;100.00;101794.66;5055010;28;20049;-84
2022/09/22 04:04:32;;;;;;;6.63;1.73;;;;;;;5.78;100.00;101797.22;5054808;28;20509;-83
2022/09/22 04:06:59;;;;;;;3.95;2.03;;;;;;;5.78;100.00;101795.47;5043945;28;20613;-82
2022/09/22 04:09:25;;;;;;;6.28;2.30;;;;;;;5.80;100.00;101795.50;5056497;28;20482;-82
2022/09/22 04:11:52;;;;;;;7.50;2.72;;;;;;;5.79;100.00;101796.38;5061701;28;20062;-82
2022/09/22 04:14:18;;;;;;;5.30;2.40;;;;;;;5.77;100.00;101787.63;5061130;28;20052;-81
2022/09/22 04:16:45;;;;;;;5.15;2.08;;;;;;;5.76;100.00;101791.06;5057988;28;20033;-81
2022/09/22 04:19:14;;;;;;;2.15;1.98;;;;;;;5.74;100.00;101791.03;5054347;28;20086;-80
2022/09/22 04:21:42;;;;;;;6.30;2.78;;;;;;;5.73;100.00;101791.00;5028182;28;20079;-81
2022/09/22 04:24:10;;;;;;;5.72;1.73;;;;;;;5.71;100.00;101788.34;5065208;28;20040;-81
2022/09/22 04:26:40;;;;;;;2.25;2.15;;;;;;;5.72;100.00;101781.44;5053108;28;20041;-81
2022/09/22 04:29:07;;;;;;;5.13;2.08;;;;;;;5.69;100.00;101778.75;5048029;28;20051;-82
2022/09/22 04:31:34;;;;;;;3.95;1.67;;;;;;;5.67;100.00;101783.91;5045338;28;20055;-81
2022/09/22 04:34:00;;;;;;;3.60;1.88;;;;;;;5.67;100.00;101777.81;5039312;28;20055;-83
2022/09/22 04:36:27;;;;;;;6.13;2.05;;;;;;;5.64;100.00;101768.22;5047032;28;20048;-82
2022/09/22 04:38:54;;;;;;;3.10;2.72;;;;;;;5.62;100.00;101777.69;5044103;28;20056;-82
2022/09/22 04:41:21;;;;;;;5.43;1.83;;;;;;;5.62;100.00;101775.09;5071071;28;20132;-82
2022/09/22 04:43:48;;;;;;;3.85;2.08;;;;;;;5.61;100.00;101778.53;5056841;28;20684;-81
2022/09/22 04:46:14;;;;;;;3.05;1.83;;;;;;;5.59;100.00;101778.50;5065414;28;20056;-82
2022/09/22 04:48:41;;;;;;;3.92;2.00;;;;;;;5.56;100.00;101778.38;5051695;28;20453;-83
2022/09/22 04:51:07;;;;;;;1.60;1.50;;;;;;;5.56;100.00;101775.78;5046540;28;20029;-83
2022/09/22 04:53:34;;;;;;;5.68;2.17;;;;;;;5.56;100.00;101774.91;5074897;28;20047;-82
2022/09/22 04:56:03;;;;;;;2.17;1.88;;;;;;;5.53;100.00;101772.19;5063712;28;20043;-86
2022/09/22 04:58:30;;;;;;;5.00;2.20;;;;;;;5.52;100.00;101781.72;5066693;28;20454;-83
2022/09/22 05:01:03;;;;;;;4.47;2.10;;;;;;;5.51;100.00;101776.50;5046741;28;20079;-82
2022/09/22 05:03:30;;;;;;;3.43;1.80;;;;;;;5.53;100.00;101775.69;5066815;28;20040;-82
2022/09/22 05:05:57;;;;;;;2.58;1.67;;;;;;;5.53;100.00;101780.91;5046923;28;20076;-82
2022/09/22 05:08:24;;;;;;;6.72;2.92;;;;;;;5.54;100.00;101776.56;5043936;28;20045;-82
2022/09/22 05:10:52;;;;;;;3.92;1.48;;;;;;;5.53;100.00;101782.59;5080920;28;20056;-82
2022/09/22 05:13:19;;;;;;;4.38;2.15;;;;;;;5.55;100.00;101780.94;5069136;28;20051;-81
2022/09/22 05:15:45;;;;;;;4.43;1.95;;;;;;;5.55;100.00;101787.00;5037236;28;20047;-82
2022/09/22 05:18:12;;;;;;;2.92;1.83;;;;;;;5.55;100.00;101774.00;5053817;28;20135;-81
2022/09/22 05:20:44;;;;;;;6.28;2.80;;;;;;;5.57;100.00;101776.69;5080203;28;20128;-82
2022/09/22 05:23:11;;;;;;;4.15;2.05;;;;;;;5.59;100.00;101775.00;5068413;28;20056;-82
2022/09/22 05:25:38;;;;;;;3.83;2.00;;;;;;;5.58;100.00;101779.31;5067265;28;20048;-82
2022/09/22 05:28:04;;;;;;;8.30;2.13;;;;;;;5.57;100.00;101782.75;5067032;28;20125;-83
2022/09/22 05:30:31;;;;;;;6.90;2.25;;;;;;;5.57;100.00;101776.69;5054783;28;20044;-81
2022/09/22 05:32:57;;;;;;;2.72;1.58;;;;;;;5.58;100.00;101783.59;5075971;28;20047;-83
2022/09/22 05:35:25;;;;;;;4.22;1.55;;;;;;;5.60;100.00;101780.22;5066279;28;20048;-82
2022/09/22 05:37:53;;;;;;;2.83;1.58;;;;;;;5.61;100.00;101783.72;5071792;28;20064;-82
2022/09/22 05:40:22;;;;;;;3.33;1.60;;;;;;;5.63;100.00;101782.94;5044092;28;20051;-82
2022/09/22 05:42:51;;;;;;;4.88;2.03;;;;;;;5.69;100.00;101784.81;5063800;28;20044;-82
2022/09/22 05:45:19;;;;;;;2.85;1.95;;;;;;;5.75;100.00;101786.69;5054249;28;20058;-83
2022/09/22 05:47:49;;;;;;;7.30;2.10;;;;;;;5.79;100.00;101789.44;5068611;28;20068;-82
2022/09/22 05:50:18;;;;;;;5.07;2.20;;;;;;;5.87;100.00;101786.22;5057987;28;20076;-83
2022/09/22 05:52:48;;;;;;;3.47;1.63;;;;;;;5.90;100.00;101792.34;5070666;28;20051;-83
2022/09/22 05:55:14;;;;;;;4.07;1.95;;;;;;;5.94;100.00;101786.44;5048086;28;20063;-83
2022/09/22 05:57:42;;;;;;;3.13;1.63;;;;;;;5.98;100.00;101782.19;5078576;28;20043;-82
2022/09/22 06:00:10;;;;;;;9.93;2.65;;;;;;;6.06;100.00;101785.91;5040150;28;20070;-83
2022/09/22 06:02:37;;;;;;;3.90;2.10;;;;;;;6.16;100.00;101784.44;5089441;28;20037;-84
2022/09/22 06:05:04;;;;;;;3.85;2.50;;;;;;;6.26;100.00;101781.25;5073403;28;20047;-82
2022/09/22 06:07:32;;;;;;;2.97;2.08;;;;;;;6.56;100.00;101785.50;5072402;28;20055;-81
2022/09/22 06:09:59;;;;;;;4.57;1.77;;;;;;;6.97;100.00;101781.28;5073420;28;20040;-82
2022/09/22 06:12:25;;;;;;;5.22;3.45;;;;;;;7.35;100.00;101784.78;5045471;28;20050;-82
2022/09/22 06:14:52;;;;;;;2.55;1.70;;;;;;;7.71;100.00;101782.97;5051778;28;20047;-82
2022/09/22 06:17:18;;;;;;;4.88;2.13;;;;;;;8.02;100.00;101780.97;5069478;28;20055;-83
2022/09/22 06:19:49;;;;;;;4.18;2.15;;;;;;;8.40;100.00;101786.91;5054389;28;20479;-82
2022/09/22 06:22:17;;;;;;;5.20;2.83;;;;;;;8.77;100.00;101778.88;5058956;28;20052;-82
2022/09/22 06:24:48;;;;;;;9.10;2.88;;;;;;;9.09;98.49;101779.38;5061645;28;20073;-83
2022/09/22 06:27:14;;;;;;;4.43;2.55;;;;;;;9.42;96.45;101785.09;5082405;28;20131;-83
2022/09/22 06:29:41;;;;;;;8.27;2.47;;;;;;;9.71;93.28;101782.88;5066738;28;20467;-83
2022/09/22 06:32:10;;;;;;;5.57;2.33;;;;;;;9.94;91.02;101774.44;5073958;28;20158;-82
2022/09/22 06:34:37;;;;;;;4.00;2.13;;;;;;;10.17;89.26;101768.56;5080045;28;20500;-82
2022/09/22 06:37:08;;;;;;;9.27;2.67;;;;;;;10.44;87.56;101768.00;5060781;28;20406;-83
2022/09/22 06:39:36;;;;;;;2.80;1.45;;;;;;;10.74;85.56;101777.00;5049298;28;20047;-82
2022/09/22 06:42:03;;;;;;;4.88;2.17;;;;;;;10.94;80.91;101774.53;5068469;28;20047;-82
2022/09/22 06:44:31;;;;;;;4.45;1.80;;;;;;;11.12;81.51;101772.91;5071738;28;20051;-83
2022/09/22 06:46:58;;;;;;;4.55;1.73;;;;;;;11.24;80.48;101776.50;5070438;28;20159;-82
2022/09/22 06:49:25;;;;;;;4.72;1.33;;;;;;;11.38;78.48;101776.59;5083395;28;20044;-82
2022/09/22 06:51:52;;;;;;;5.65;1.80;;;;;;;11.57;78.08;101774.91;5064784;28;20066;-82
2022/09/22 06:54:19;;;;;;;9.73;1.60;;;;;;;11.84;76.77;101778.53;5061305;28;20050;-82
2022/09/22 06:56:46;;;;;;;3.72;1.48;;;;;;;12.21;74.82;101780.44;5065798;28;20040;-82
2022/09/22 06:59:13;;;;;;;1.85;1.02;;;;;;;12.41;71.10;101773.47;5096230;28;20083;-81
2022/09/22 07:01:42;;;;;;;4.78;1.52;;;;;;;12.76;70.41;101774.38;5065518;28;20032;-82
2022/09/22 07:04:13;;;;;;;4.03;0.93;;;;;;;13.06;69.59;101775.22;5058489;28;20497;-82
2022/09/22 07:06:42;;;;;;;12.25;2.42;;;;;;;13.29;68.81;101775.19;5063292;28;20399;-82
2022/09/22 07:09:09;;;;;;;3.28;1.55;;;;;;;13.66;67.45;101776.88;5077293;28;20048;-83
2022/09/22 07:11:36;;;;;;;4.90;1.33;;;;;;;13.94;66.19;101772.38;5063269;28;20040;-82
2022/09/22 07:14:03;;;;;;;4.07;1.33;;;;;;;14.20;65.17;101764.31;5046906;28;20052;-82
2022/09/22 07:16:29;;;;;;;2.03;1.30;;;;;;;14.51;63.96;101763.22;5045858;28;20055;-82
2022/09/22 07:18:58;;;;;;;7.30;1.10;;;;;;;15.00;62.19;101769.88;5065779;28;20135;-84
2022/09/22 07:21:35;;;;;;;2.20;1.08;;;;;;;15.28;60.00;101764.31;5072676;28;20117;-82
2022/09/22 07:24:02;;;;;;;4.68;1.20;;;;;;;15.71;60.45;101766.47;5082201;28;20113;-82
2022/09/22 07:26:32;;;;;;;4.43;1.20;;;;;;;15.85;58.69;101767.22;5093418;28;20040;-83
2022/09/22 07:29:02;;;;;;;2.63;1.10;;;;;;;16.07;56.96;101771.31;5068173;28;20049;-83
2022/09/22 07:31:35;;;;;;;6.90;2.03;;;;;;;16.33;57.07;101769.16;5051264;28;20040;-84
2022/09/22 07:34:03;;;;;;;4.97;1.58;;;;;;;16.73;55.68;101774.72;5052962;28;20044;-84
2022/09/22 07:36:32;;;;;;;3.50;1.23;;;;;;;17.05;55.64;101770.66;5044883;28;20086;-85
2022/09/22 07:39:07;;;;;;;3.63;1.42;;;;;;;17.17;53.19;101767.81;5051081;28;20055;-83
2022/09/22 07:41:40;;;;;;;4.38;1.35;;;;;;;17.40;52.71;101763.84;5052111;28;20048;-84
2022/09/22 07:46:53;;;;;;;10.15;3.10;;;;;;;17.91;52.51;101765.44;5054966;28;20055;-85
2022/09/22 07:49:21;;;;;;;41.75;6.93;;;;;;;18.18;50.90;101766.63;5047167;28;20051;-84
2022/09/22 07:51:53;;;;;;;29.45;4.40;;;;;;;18.32;49.69;101772.47;5080105;28;20047;-85
2022/09/22 07:54:25;;;;;;;14.43;3.72;;;;;;;18.52;48.83;101769.38;5066863;28;20040;-85
2022/09/22 07:56:57;;;;;;;14.25;3.10;;;;;;;18.22;49.95;101768.28;5068057;28;20064;-84
2022/09/22 07:59:24;;;;;;;12.75;2.03;;;;;;;17.95;50.53;101770.69;5068429;28;20062;-84
2022/09/22 08:01:52;;;;;;;3.13;1.10;;;;;;;18.43;49.82;101766.91;5053604;28;20059;-85
2022/09/22 08:04:25;;;;;;;5.15;1.13;;;;;;;18.97;48.01;101768.25;5049567;28;20048;-84
2022/09/22 08:06:54;;;;;;;3.30;1.65;;;;;;;19.32;46.79;101768.19;5068322;28;20470;-83
2022/09/22 08:09:28;;;;;;;2.22;1.20;;;;;;;19.53;46.47;101761.44;5057075;28;20040;-83
2022/09/22 08:11:56;;;;;;;2.83;0.88;;;;;;;19.84;46.36;101765.84;5060424;28;20054;-83
2022/09/22 08:14:25;;;;;;;3.33;1.33;;;;;;;20.09;46.01;101754.47;5086190;28;20091;-84
2022/09/22 08:16:57;;;;;;;4.47;1.20;;;;;;;20.65;44.04;101758.91;5070807;28;20054;-84
2022/09/22 08:19:25;;;;;;;3.10;1.15;;;;;;;20.88;43.85;101762.59;5058604;28;20059;-84
2022/09/22 08:21:57;;;;;;;3.35;1.20;;;;;;;21.23;43.15;101761.31;5084482;28;20143;-84
2022/09/22 08:24:24;;;;;;;1.40;0.95;;;;;;;21.60;42.63;101768.00;5051654;28;20040;-84
2022/09/22 08:26:56;;;;;;;3.70;1.33;;;;;;;22.00;42.21;101762.94;5042769;28;20068;-84
2022/09/22 08:29:23;;;;;;;3.90;1.30;;;;;;;22.24;41.03;101754.88;5068006;28;20131;-85
2022/09/22 08:31:51;;;;;;;4.03;1.08;;;;;;;22.67;40.26;101760.28;5090425;28;20051;-84
2022/09/22 08:34:17;;;;;;;7.70;2.03;;;;;;;22.96;39.70;101756.38;5062416;28;20040;-84
2022/09/22 08:36:47;;;;;;;3.22;1.20;;;;;;;23.26;39.59;101759.50;5066964;28;20053;-85
2022/09/22 08:39:16;;;;;;;2.03;0.98;;;;;;;23.45;38.70;101756.00;5058028;28;20471;-84
2022/09/22 08:42:22;;;;;;;2.35;0.82;;;;;;;23.86;37.12;101760.38;5059748;28;20032;-84
2022/09/22 08:45:05;;;;;;;2.78;1.05;;;;;;;23.66;37.17;101764.81;5077236;28;20041;-84
2022/09/22 08:53:42;;;;;;;2.92;1.40;;;;;;;24.20;36.44;101767.66;5080820;28;20107;-85
2022/09/22 08:57:13;;;;;;;2.58;1.02;;;;;;;24.31;35.19;101761.78;5088911;28;20056;-84
2022/09/22 09:00:13;;;;;;;3.40;1.35;;;;;;;24.85;35.27;101763.56;5072705;28;20081;-84
2022/09/22 09:03:02;;;;;;;2.53;1.00;;;;;;;25.17;34.42;101764.56;5088679;28;20040;-85
2022/09/22 09:05:46;;;;;;;4.05;1.33;;;;;;;25.19;34.84;101761.84;5064925;28;20044;-85
2022/09/22 09:09:00;;;;;;;2.38;1.35;;;;;;;24.74;34.67;101764.13;5071483;28;20052;-84
2022/09/22 09:12:07;;;;;;;0.98;0.90;;;;;;;22.84;37.78;101765.78;5098399;28;20051;-84
2022/09/22 09:15:14;;;;;;;3.83;1.88;;;;;;;21.18;40.82;101765.94;5071257;28;20094;-85
2022/09/22 09:17:47;;;;;;;1.30;1.20;;;;;;;19.96;42.98;101769.97;5058309;28;20108;-84
2022/09/22 09:20:20;;;;;;;2.25;1.10;;;;;;;18.95;45.38;101775.38;5079182;28;20842;-85
2022/09/22 09:22:54;;;;;;;7.45;1.63;;;;;;;18.17;47.53;101767.53;5086526;28;20052;-85
2022/09/22 09:25:42;;;;;;;2.20;1.00;;;;;;;17.73;47.73;101772.88;5075220;28;20044;-85
2022/09/22 09:28:22;;;;;;;2.15;1.50;;;;;;;17.48;47.21;101765.44;5071824;28;20070;-86
2022/09/22 09:31:01;;;;;;;1.50;0.93;;;;;;;17.11;48.86;101768.78;5097382;28;20036;-85
2022/09/22 09:33:52;;;;;;;2.08;1.13;;;;;;;17.86;46.91;101763.75;5086978;28;20036;-85
2022/09/22 09:36:22;;;;;;;2.17;1.10;;;;;;;19.98;42.89;101760.13;5075070;28;20043;-84
2022/09/22 09:38:55;;;;;;;2.05;0.75;;;;;;;22.01;38.99;101756.69;5068780;28;20082;-85
2022/09/22 09:41:31;;;;;;;1.75;0.95;;;;;;;24.01;36.23;101750.75;5067251;28;20044;-85
2022/09/22 09:44:01;;;;;;;1.23;0.98;;;;;;;25.03;33.75;101734.97;5076557;28;20156;-85
2022/09/22 09:46:52;;;;;;;1.33;0.75;;;;;;;26.09;32.17;101742.59;5080619;28;20032;-86
2022/09/22 09:49:22;;;;;;;2.67;0.52;;;;;;;26.73;31.76;101745.19;5086372;28;20049;-85
2022/09/22 09:52:05;;;;;;;4.63;1.20;;;;;;;27.32;29.54;101738.91;5074780;28;20144;-86
2022/09/22 09:54:32;;;;;;;2.28;0.85;;;;;;;27.46;30.47;101739.91;5092841;28;20052;-86
2022/09/22 09:57:05;;;;;;;3.97;0.82;;;;;;;27.87;30.30;101739.06;5089122;28;20049;-86
2022/09/22 10:02:26;;;;;;;2.63;0.63;;;;;;;28.46;29.21;101736.09;5086607;28;19969;-87
2022/09/22 10:05:00;;;;;;;0.50;0.40;;;;;;;29.00;27.29;101732.41;5090317;28;20063;-86
2022/09/22 10:07:51;;;;;;;2.60;0.77;;;;;;;28.91;26.70;101746.53;5072012;28;20052;-86
2022/09/22 10:10:35;;;;;;;3.03;0.70;;;;;;;28.67;26.85;101741.00;5057792;28;20075;-86
2022/09/22 10:13:04;;;;;;;2.47;0.85;;;;;;;28.88;27.27;101736.81;5088751;28;20036;-86
2022/09/22 10:15:38;;;;;;;1.73;0.85;;;;;;;28.95;26.40;101722.91;5089909;28;20043;-85
2022/09/22 10:18:35;;;;;;;1.55;0.60;;;;;;;29.33;26.56;101731.03;5060463;28;20044;-85
2022/09/22 10:21:17;;;;;;;1.98;0.77;;;;;;;29.27;27.04;101719.78;5072738;28;20092;-86
2022/09/22 10:23:47;;;;;;;2.38;0.90;;;;;;;29.65;27.11;101725.13;5093634;28;20075;-86
2022/09/22 10:26:29;;;;;;;2.65;0.88;;;;;;;30.37;25.00;101720.72;5078237;28;20048;-86
2022/09/22 10:29:20;;;;;;;5.18;1.20;;;;;;;29.90;24.62;101719.78;5059730;28;20122;-87
2022/09/22 10:32:00;;;;;;;2.72;0.75;;;;;;;30.28;24.75;101710.63;5058741;28;20066;-86
2022/09/22 10:34:30;;;;;;;3.38;1.33;;;;;;;30.42;25.57;101709.59;5069439;28;20069;-86
2022/09/22 10:37:00;;;;;;;2.13;1.23;;;;;;;30.30;24.63;101705.97;5052507;28;20087;-86
2022/09/22 10:42:42;;;;;;;3.95;0.93;;;;;;;31.00;23.61;101709.59;5086672;28;20120;-86
2022/09/22 10:45:14;;;;;;;0.30;0.30;;;;;;;31.79;23.37;101698.75;5070706;28;20390;-86
2022/09/22 10:48:28;;;;;;;1.60;0.47;;;;;;;31.93;21.21;101702.13;5055703;28;20041;-86
2022/09/22 10:51:16;;;;;;;4.72;1.73;;;;;;;31.66;21.03;101704.31;5051665;28;20339;-85
2022/09/22 10:54:37;;;;;;;0.80;0.38;;;;;;;30.95;22.08;101699.16;5063433;28;20541;-85
2022/09/22 10:57:12;;;;;;;1.80;0.35;;;;;;;29.69;22.98;101694.22;5074516;28;20139;-84
2022/09/22 10:59:56;;;;;;;9.52;1.27;;;;;;;26.71;26.37;101697.84;5054927;28;20071;-86
2022/09/22 11:03:22;;;;;;;6.38;0.77;;;;;;;25.18;27.81;101698.47;5065879;28;20040;-84
2022/09/22 11:12:57;;;;;;;2.10;0.55;;;;;;;26.89;25.43;101685.16;5073242;28;20039;-85
2022/09/22 11:15:54;;;;;;;2.00;0.38;;;;;;;28.03;24.63;101683.28;5071277;28;20379;-84
2022/09/22 11:19:05;;;;;;;1.80;0.30;;;;;;;27.40;25.29;101692.75;5075795;28;20054;-84
2022/09/22 11:21:40;;;;;;;1.45;0.50;;;;;;;28.19;24.66;101680.44;5086527;28;20056;-84
2022/09/22 11:24:27;;;;;;;1.75;0.32;;;;;;;29.10;24.26;101673.31;5073150;28;20066;-83
2022/09/22 11:27:01;;;;;;;2.20;0.82;;;;;;;29.66;23.46;101670.19;5067551;28;20040;-84
2022/09/22 11:30:03;;;;;;;2.92;0.77;;;;;;;29.28;23.52;101670.28;5059010;28;20040;-84
2022/09/22 11:33:13;;;;;;;2.08;0.60;;;;;;;29.98;22.61;101661.53;5086119;28;20040;-84
2022/09/22 11:36:09;;;;;;;3.25;0.93;;;;;;;29.64;23.67;101660.47;5080964;28;20060;-84
2022/09/22 11:38:56;;;;;;;7.22;1.15;;;;;;;28.87;23.90;101664.16;5063611;28;20749;-85
2022/09/22 11:41:31;;;;;;;0.90;0.43;;;;;;;29.82;23.17;101653.69;5061643;28;20040;-84
2022/09/22 11:44:24;;;;;;;2.50;0.68;;;;;;;30.57;22.78;101653.50;5069377;28;20048;-84
2022/09/22 11:47:25;;;;;;;;;;;;;;;28.62;24.40;101656.94;5069736;28;20048;-83
2022/09/22 11:50:32;;;;;;;3.95;0.85;;;;;;;27.17;26.69;101656.53;5055106;28;19927;-84
2022/09/22 11:53:29;;;;;;;0.93;0.70;;;;;;;25.09;29.19;101652.44;5040189;28;20054;-84
2022/09/22 11:56:37;;;;;;;4.03;0.90;;;;;;;23.13;32.05;101654.97;5037478;28;20055;-85
2022/09/22 11:59:56;;;;;;;0.90;0.50;;;;;;;22.08;33.73;101648.81;5077277;28;20044;-84
2022/09/22 12:02:34;;;;;;;2.35;0.70;;;;;;;21.62;34.68;101656.91;5062570;28;20040;-84
2022/09/22 12:05:10;;;;;;;2.05;0.77;;;;;;;21.00;35.79;101653.00;5075508;28;20440;-84
2022/09/22 12:10:44;;;;;;;0.95;0.35;;;;;;;24.22;31.69;101636.47;5070009;28;20111;-84
2022/09/22 12:13:20;;;;;;;1.40;0.60;;;;;;;26.86;27.44;101637.84;5067838;28;20044;-84
2022/09/22 12:16:17;;;;;;;1.45;0.98;;;;;;;28.37;25.55;101623.63;5072821;28;20068;-84
2022/09/22 12:19:04;;;;;;;3.47;1.08;;;;;;;27.79;25.67;101617.63;5053450;28;20144;-86
2022/09/22 12:21:43;;;;;;;2.50;0.70;;;;;;;26.25;27.67;101629.00;5062493;28;20049;-85
2022/09/22 12:24:12;;;;;;;1.52;0.65;;;;;;;25.19;29.21;101614.47;5047891;28;20040;-83
2022/09/22 12:26:45;;;;;;;1.23;0.70;;;;;;;24.22;30.55;101621.31;5043049;28;20479;-84